Time;durP1;ratioP1;P1;durP2;ratioP2;P2;SDS_P1;SDS_P2;PMS_P1;PMS_P2;Temp;Humidity;BMP_temperature;BMP_pressure;BME280_temperature;BME280_humidity;BME280_pressure;Samples;Min_cycle;Max_cycle;Signal;HPM_P1;HPM_P2
2023/06/04 00:00:57;;;;;;;;;;;;;;;;;;137836;1270;22926;-80
2023/06/04 00:04:18;;;;;;;;;;;;;;;;;;137618;1270;22555;-80
2023/06/04 00:07:19;;;;;;;;;;;;;;;;;;137519;1270;22495;-80
2023/06/04 00:10:20;;;;;;;;;;;;;;;;;;137468;1270;22975;-81
2023/06/04 00:13:21;;;;;;;;;;;;;;;;;;137805;1270;22563;-79
2023/06/04 00:16:22;;;;;;;;;;;;;;;;;;137372;1270;22875;-80
2023/06/04 00:19:24;;;;;;;;;;;;;;;;;;137326;1270;22533;-80
2023/06/04 00:22:25;;;;;;;;;;;;;;;;;;137842;1270;22501;-80
2023/06/04 00:25:26;;;;;;;;;;;;;;;;;;137412;1270;22958;-80
2023/06/04 00:28:27;;;;;;;;;;;;;;;;;;137404;1270;24368;-80
2023/06/04 00:31:28;;;;;;;;;;;;;;;;;;137716;1270;22549;-80
2023/06/04 00:34:29;;;;;;;;;;;;;;;;;;137438;1266;22489;-79
2023/06/04 00:37:30;;;;;;;;;;;;;;;;;;137349;1270;22502;-79
2023/06/04 00:40:31;;;;;;;;;;;;;;;;;;137579;1270;25423;-83
2023/06/04 00:43:32;;;;;;;;;;;;;;;;;;137653;1270;23109;-81
2023/06/04 00:46:33;;;;;;;;;;;;;;;;;;137383;1270;22490;-81
2023/06/04 00:49:34;;;;;;;;;;;;;;;;;;137408;1270;23063;-81
2023/06/04 00:52:35;;;;;;;;;;;;;;;;;;137765;1270;22510;-80
2023/06/04 00:55:36;;;;;;;;;;;;;;;;;;137356;1270;22515;-80
2023/06/04 00:58:38;;;;;;;;;;;;;;;;;;137315;1270;23018;-79
2023/06/04 01:01:40;;;;;;;;;;;;;;;;;;137832;1270;22520;-80
2023/06/04 01:04:41;;;;;;;;;;;;;;;;;;137261;1270;22604;-81
2023/06/04 01:07:45;;;;;;;;;;;;;;;;;;137332;1262;22537;-81
2023/06/04 01:10:46;;;;;;;;;;;;;;;;;;137575;1270;22527;-82
2023/06/04 01:13:47;;;;;;;;;;;;;;;;;;137615;1270;22536;-81
2023/06/04 01:16:48;;;;;;;;;;;;;;;;;;137276;1270;22657;-79
2023/06/04 01:19:51;;;;;;;;;;;;;;;;;;137373;1270;22629;-82
2023/06/04 01:22:54;;;;;;;;;;;;;;;;;;137814;1270;22507;-79
2023/06/04 01:25:57;;;;;;;;;;;;;;;;;;137308;1270;22498;-79
2023/06/04 01:28:58;;;;;;;;;;;;;;;;;;137388;1270;24039;-81
2023/06/04 01:31:59;;;;;;;;;;;;;;;;;;137823;1270;22493;-80
2023/06/04 01:35:00;;;;;;;;;;;;;;;;;;137308;1270;22481;-80
2023/06/04 01:38:01;;;;;;;;;;;;;;;;;;137362;1270;22521;-80
2023/06/04 01:41:03;;;;;;;;;;;;;;;;;;137643;1270;22523;-81
2023/06/04 01:44:04;;;;;;;;;;;;;;;;;;137340;1270;22561;-79
2023/06/04 01:47:05;;;;;;;;;;;;;;;;;;137311;1270;22528;-80
2023/06/04 01:50:09;;;;;;;;;;;;;;;;;;137537;1270;22518;-81
2023/06/04 01:53:10;;;;;;;;;;;;;;;;;;137735;1270;22910;-78
2023/06/04 01:56:11;;;;;;;;;;;;;;;;;;137245;1270;22503;-81
2023/06/04 01:59:12;;;;;;;;;;;;;;;;;;137353;1270;22944;-79
2023/06/04 02:02:13;;;;;;;;;;;;;;;;;;137791;1270;22541;-79
2023/06/04 02:05:14;;;;;;;;;;;;;;;;;;137322;1270;22559;-80
2023/06/04 02:08:18;;;;;;;;;;;;;;;;;;137386;1270;22521;-81
2023/06/04 02:11:19;;;;;;;;;;;;;;;;;;137837;1270;22509;-81
2023/06/04 02:14:20;;;;;;;;;;;;;;;;;;137352;1270;22491;-81
2023/06/04 02:17:22;;;;;;;;;;;;;;;;;;137272;1270;22510;-81
2023/06/04 02:20:23;;;;;;;;;;;;;;;;;;137619;1266;22537;-82
2023/06/04 02:23:24;;;;;;;;;;;;;;;;;;137559;1270;22497;-79
2023/06/04 02:26:25;;;;;;;;;;;;;;;;;;137289;1270;22503;-79
2023/06/04 02:29:26;;;;;;;;;;;;;;;;;;137417;1270;22499;-82
2023/06/04 02:32:28;;;;;;;;;;;;;;;;;;137797;1270;22526;-79
2023/06/04 02:35:29;;;;;;;;;;;;;;;;;;137224;1270;22536;-81
2023/06/04 02:38:30;;;;;;;;;;;;;;;;;;137270;1270;22515;-80
2023/06/04 02:41:31;;;;;;;;;;;;;;;;;;137826;1270;22531;-80
2023/06/04 02:44:32;;;;;;;;;;;;;;;;;;137344;1270;22515;-80
2023/06/04 02:47:33;;;;;;;;;;;;;;;;;;137270;1270;22507;-81
2023/06/04 02:50:35;;;;;;;;;;;;;;;;;;137639;1270;22504;-81
2023/06/04 02:53:36;;;;;;;;;;;;;;;;;;137422;1270;22543;-81
2023/06/04 02:56:37;;;;;;;;;;;;;;;;;;137348;1270;22521;-81
2023/06/04 02:59:38;;;;;;;;;;;;;;;;;;137616;1270;22609;-82
2023/06/04 03:02:39;;;;;;;;;;;;;;;;;;137609;1270;22547;-81
2023/06/04 03:05:40;;;;;;;;;;;;;;;;;;137564;1270;22620;-79
2023/06/04 03:08:41;;;;;;;;;;;;;;;;;;137661;1270;22546;-79
2023/06/04 03:11:42;;;;;;;;;;;;;;;;;;137761;1270;22432;-79
2023/06/04 03:14:43;;;;;;;;;;;;;;;;;;137573;1270;22603;-79
2023/06/04 03:17:45;;;;;;;;;;;;;;;;;;137609;1270;25003;-79
2023/06/04 03:20:46;;;;;;;;;;;;;;;;;;137877;1270;22489;-79
2023/06/04 03:23:47;;;;;;;;;;;;;;;;;;137734;1270;22543;-79
2023/06/04 03:26:48;;;;;;;;;;;;;;;;;;137312;1270;22522;-79
2023/06/04 03:29:49;;;;;;;;;;;;;;;;;;137680;1270;22511;-80
2023/06/04 03:32:50;;;;;;;;;;;;;;;;;;137565;1270;22508;-80
2023/06/04 03:35:52;;;;;;;;;;;;;;;;;;137232;1270;22482;-80
2023/06/04 03:38:53;;;;;;;;;;;;;;;;;;137415;1270;24241;-82
2023/06/04 03:41:55;;;;;;;;;;;;;;;;;;137643;1270;22495;-80
2023/06/04 03:44:57;;;;;;;;;;;;;;;;;;137216;1270;22500;-80
2023/06/04 03:47:58;;;;;;;;;;;;;;;;;;137207;1270;22526;-80
2023/06/04 03:51:00;;;;;;;;;;;;;;;;;;137791;1270;22511;-80
2023/06/04 03:54:01;;;;;;;;;;;;;;;;;;137276;1270;22493;-80
2023/06/04 03:57:03;;;;;;;;;;;;;;;;;;137168;1270;22954;-81
2023/06/04 04:00:05;;;;;;;;;;;;;;;;;;137713;1270;22502;-80
2023/06/04 04:03:09;;;;;;;;;;;;;;;;;;137330;1270;22511;-80
2023/06/04 04:06:10;;;;;;;;;;;;;;;;;;137244;1270;22501;-81
2023/06/04 04:09:12;;;;;;;;;;;;;;;;;;137524;1270;23629;-81
2023/06/04 04:12:13;;;;;;;;;;;;;;;;;;137530;1270;22493;-81
2023/06/04 04:15:14;;;;;;;;;;;;;;;;;;137305;1270;22953;-81
2023/06/04 04:18:16;;;;;;;;;;;;;;;;;;137370;1270;22510;-82
2023/06/04 04:21:17;;;;;;;;;;;;;;;;;;137777;1270;22536;-80
2023/06/04 04:24:18;;;;;;;;;;;;;;;;;;137241;1270;22993;-82
2023/06/04 04:27:19;;;;;;;;;;;;;;;;;;137262;1270;22989;-81
2023/06/04 04:30:20;;;;;;;;;;;;;;;;;;137776;1270;22938;-81
2023/06/04 04:33:24;;;;;;;;;;;;;;;;;;137266;1270;22617;-82
2023/06/04 04:36:25;;;;;;;;;;;;;;;;;;137201;1270;22502;-80
2023/06/04 04:39:26;;;;;;;;;;;;;;;;;;137608;1270;22533;-82
2023/06/04 04:42:27;;;;;;;;;;;;;;;;;;137499;1270;22490;-80
2023/06/04 04:45:28;;;;;;;;;;;;;;;;;;137170;1270;22557;-82
2023/06/04 04:48:29;;;;;;;;;;;;;;;;;;137385;1270;22511;-84
2023/06/04 04:51:31;;;;;;;;;;;;;;;;;;137684;1270;22977;-82
2023/06/04 04:54:32;;;;;;;;;;;;;;;;;;137239;1270;22565;-81
2023/06/04 04:57:33;;;;;;;;;;;;;;;;;;137258;1270;22515;-83
2023/06/04 05:00:34;;;;;;;;;;;;;;;;;;137828;1270;22910;-83
2023/06/04 05:03:35;;;;;;;;;;;;;;;;;;137278;1270;22500;-84
2023/06/04 05:06:36;;;;;;;;;;;;;;;;;;137259;1270;22544;-83
2023/06/04 05:09:38;;;;;;;;;;;;;;;;;;137916;1270;22362;-85
2023/06/04 05:12:39;;;;;;;;;;;;;;;;;;137440;1270;22544;-84
2023/06/04 05:15:42;;;;;;;;;;;;;;;;;;137277;1270;22503;-83
2023/06/04 05:18:44;;;;;;;;;;;;;;;;;;137969;1270;22278;-84
2023/06/04 05:21:45;;;;;;;;;;;;;;;;;;137581;1270;22522;-83
2023/06/04 05:24:46;;;;;;;;;;;;;;;;;;137383;1271;22837;-84
2023/06/04 05:27:49;;;;;;;;;;;;;;;;;;137631;1270;22459;-84
2023/06/04 05:30:50;;;;;;;;;;;;;;;;;;137759;1270;23117;-83
2023/06/04 05:33:52;;;;;;;;;;;;;;;;;;137346;1270;22559;-84
2023/06/04 05:36:53;;;;;;;;;;;;;;;;;;137248;1270;22544;-83
2023/06/04 05:39:54;;;;;;;;;;;;;;;;;;137600;1271;22551;-83
2023/06/04 05:42:56;;;;;;;;;;;;;;;;;;137515;1270;22512;-84
2023/06/04 05:45:57;;;;;;;;;;;;;;;;;;137170;1271;22895;-84
2023/06/04 05:48:58;;;;;;;;;;;;;;;;;;137730;1271;22514;-85
2023/06/04 05:51:59;;;;;;;;;;;;;;;;;;137226;1270;22543;-85
2023/06/04 05:55:00;;;;;;;;;;;;;;;;;;137701;1270;23317;-86
2023/06/04 05:58:01;;;;;;;;;;;;;;;;;;137948;1270;22588;-85
2023/06/04 06:01:03;;;;;;;;;;;;;;;;;;137327;1270;22545;-84
2023/06/04 06:04:05;;;;;;;;;;;;;;;;;;137441;1271;22529;-83
2023/06/04 06:07:06;;;;;;;;;;;;;;;;;;137036;1271;22533;-84
2023/06/04 06:10:08;;;;;;;;;;;;;;;;;;137116;1268;22530;-85
2023/06/04 06:13:09;;;;;;;;;;;;;;;;;;137730;1266;22555;-84
2023/06/04 06:16:10;;;;;;;;;;;;;;;;;;137609;1270;22458;-85
2023/06/04 06:19:12;;;;;;;;;;;;;;;;;;137322;1270;22701;-84
2023/06/04 06:22:13;;;;;;;;;;;;;;;;;;136925;1271;22682;-85
2023/06/04 06:25:15;;;;;;;;;;;;;;;;;;137732;1271;22538;-84
2023/06/04 06:28:17;;;;;;;;;;;;;;;;;;138077;1268;22506;-84
2023/06/04 06:31:18;;;;;;;;;;;;;;;;;;138143;1270;22504;-84
2023/06/04 06:34:21;;;;;;;;;;;;;;;;;;138156;1270;22479;-85
2023/06/04 06:37:22;;;;;;;;;;;;;;;;;;138062;1270;22475;-84
2023/06/04 06:40:27;;;;;;;;;;;;;;;;;;137773;1271;22486;-85
2023/06/04 06:43:31;;;;;;;;;;;;;;;;;;138114;1270;22654;-84
2023/06/04 06:46:32;;;;;;;;;;;;;;;;;;137633;1270;22505;-85
2023/06/04 06:49:34;;;;;;;;;;;;;;;;;;137586;1270;182031;-84
2023/06/04 06:52:35;;;;;;;;;;;;;;;;;;137396;1271;22556;-84
2023/06/04 06:55:40;;;;;;;;;;;;;;;;;;137591;1271;22490;-84
2023/06/04 06:59:08;;;;;;;;;;;;;;;;;;137243;1270;22554;-83
2023/06/04 07:02:12;;;;;;;;;;;;;;;;;;137339;1271;22561;-84
2023/06/04 07:05:20;;;;;;;;;;;;;;;;;;137152;1270;22559;-83
2023/06/04 07:08:28;;;;;;;;;;;;;;;;;;137270;1266;22522;-84
2023/06/04 07:15:05;;;;;;;;;;;;;;;;;;137261;1270;22494;-84
2023/06/04 07:18:42;;;;;;;;;;;;;;;;;;136701;1272;24258;-85
2023/06/04 07:22:18;;;;;;;;;;;;;;;;;;137105;1276;22662;-85
2023/06/04 07:35:49;;;;;;;;;;;;;;;;;;136762;1276;23109;-85
2023/06/04 07:38:53;;;;;;;;;;;;;;;;;;136795;1276;22545;-84
2023/06/04 07:41:57;;;;;;;;;;;;;;;;;;137047;1276;22583;-83
2023/06/04 07:44:58;;;;;;;;;;;;;;;;;;137190;1276;22560;-84
2023/06/04 07:51:35;;;;;;;;;;;;;;;;;;136866;1272;23006;-83
2023/06/04 07:54:49;;;;;;;;;;;;;;;;;;137172;1271;22892;-84
2023/06/04 07:57:51;;;;;;;;;;;;;;;;;;137435;1271;22788;-84
2023/06/04 08:01:00;;;;;;;;;;;;;;;;;;137084;1272;22561;-84
2023/06/04 08:04:02;;;;;;;;;;;;;;;;;;137065;1272;22554;-83
2023/06/04 08:10:25;;;;;;;;;;;;;;;;;;137314;1272;22547;-84
2023/06/04 08:13:34;;;;;;;;;;;;;;;;;;137361;1272;22623;-84
2023/06/04 08:16:35;;;;;;;;;;;;;;;;;;137198;1272;22504;-84
2023/06/04 08:19:37;;;;;;;;;;;;;;;;;;137500;1272;22536;-84
2023/06/04 08:22:41;;;;;;;;;;;;;;;;;;137312;1272;22473;-84
2023/06/04 08:25:43;;;;;;;;;;;;;;;;;;136946;1272;22562;-84
2023/06/04 08:28:44;;;;;;;;;;;;;;;;;;136877;1272;22517;-83
2023/06/04 08:31:48;;;;;;;;;;;;;;;;;;137080;1272;22557;-83
2023/06/04 08:34:49;;;;;;;;;;;;;;;;;;136608;1268;22512;-83
2023/06/04 08:37:51;;;;;;;;;;;;;;;;;;136798;1272;22521;-85
2023/06/04 08:41:05;;;;;;;;;;;;;;;;;;136931;1272;22497;-85
2023/06/04 08:44:13;;;;;;;;;;;;;;;;;;136660;1272;22510;-85
2023/06/04 08:47:16;;;;;;;;;;;;;;;;;;137527;1272;23043;-85
2023/06/04 08:50:31;;;;;;;;;;;;;;;;;;136731;1272;24217;-86
2023/06/04 08:53:42;;;;;;;;;;;;;;;;;;136848;1272;22523;-86
2023/06/04 08:56:43;;;;;;;;;;;;;;;;;;137332;1272;22515;-85
2023/06/04 08:59:53;;;;;;;;;;;;;;;;;;137139;1272;22530;-85
2023/06/04 09:02:54;;;;;;;;;;;;;;;;;;137183;1272;24202;-85
2023/06/04 09:05:59;;;;;;;;;;;;;;;;;;137415;1272;22542;-84
2023/06/04 09:09:12;;;;;;;;;;;;;;;;;;137628;1272;22539;-84
2023/06/04 09:12:28;;;;;;;;;;;;;;;;;;137375;1272;22531;-84
2023/06/04 09:15:30;;;;;;;;;;;;;;;;;;137066;1272;26492;-85
2023/06/04 09:18:50;;;;;;;;;;;;;;;;;;137086;1272;22593;-86
2023/06/04 09:21:52;;;;;;;;;;;;;;;;;;137022;1272;22616;-84
2023/06/04 09:25:06;;;;;;;;;;;;;;;;;;137009;1272;24212;-84
2023/06/04 09:31:48;;;;;;;;;;;;;;;;;;136485;1278;22582;-85
2023/06/04 09:34:52;;;;;;;;;;;;;;;;;;136529;1278;22812;-85
2023/06/04 09:37:57;;;;;;;;;;;;;;;;;;136751;1278;22863;-84
2023/06/04 09:41:00;;;;;;;;;;;;;;;;;;136805;1278;22520;-85
2023/06/04 09:44:12;;;;;;;;;;;;;;;;;;136598;1278;22552;-86
2023/06/04 09:47:18;;;;;;;;;;;;;;;;;;136744;1278;22467;-86
2023/06/04 09:53:55;;;;;;;;;;;;;;;;;;136830;1278;22554;-85
2023/06/04 10:00:20;;;;;;;;;;;;;;;;;;136561;1278;22537;-85
2023/06/04 10:03:27;;;;;;;;;;;;;;;;;;136504;1277;22519;-84
2023/06/04 10:06:32;;;;;;;;;;;;;;;;;;136584;1278;22549;-84
2023/06/04 10:09:35;;;;;;;;;;;;;;;;;;136902;1272;22511;-84
2023/06/04 10:12:41;;;;;;;;;;;;;;;;;;136821;1272;22575;-85
2023/06/04 10:15:44;;;;;;;;;;;;;;;;;;137150;1272;22587;-84
2023/06/04 10:18:45;;;;;;;;;;;;;;;;;;137031;1272;22578;-84
2023/06/04 10:21:46;;;;;;;;;;;;;;;;;;137489;1272;22476;-83
2023/06/04 10:24:48;;;;;;;;;;;;;;;;;;137427;1272;22604;-83
2023/06/04 10:27:49;;;;;;;;;;;;;;;;;;137335;1272;22544;-84
2023/06/04 10:30:52;;;;;;;;;;;;;;;;;;137090;1272;22447;-84
2023/06/04 10:33:54;;;;;;;;;;;;;;;;;;136989;1272;22515;-83
2023/06/04 10:36:55;;;;;;;;;;;;;;;;;;137581;1269;22468;-85
2023/06/04 10:39:59;;;;;;;;;;;;;;;;;;137289;1272;22544;-83
2023/06/04 10:43:00;;;;;;;;;;;;;;;;;;136828;1272;22590;-83
2023/06/04 10:46:05;;;;;;;;;;;;;;;;;;137115;1272;22591;-83
2023/06/04 10:49:07;;;;;;;;;;;;;;;;;;136910;1272;22784;-83
2023/06/04 10:52:15;;;;;;;;;;;;;;;;;;136674;1272;22551;-83
2023/06/04 10:55:17;;;;;;;;;;;;;;;;;;137621;1272;22501;-84
2023/06/04 10:58:18;;;;;;;;;;;;;;;;;;136875;1272;22538;-83
2023/06/04 11:01:19;;;;;;;;;;;;;;;;;;136881;1272;22554;-82
2023/06/04 11:04:20;;;;;;;;;;;;;;;;;;137413;1272;25409;-83
2023/06/04 11:07:22;;;;;;;;;;;;;;;;;;136893;1272;22565;-84
2023/06/04 11:10:23;;;;;;;;;;;;;;;;;;136924;1272;22556;-84
2023/06/04 11:13:25;;;;;;;;;;;;;;;;;;137563;1272;22550;-83
2023/06/04 11:16:26;;;;;;;;;;;;;;;;;;137103;1272;22563;-84
2023/06/04 11:19:27;;;;;;;;;;;;;;;;;;137004;1272;22659;-84
2023/06/04 11:22:28;;;;;;;;;;;;;;;;;;137400;1272;22504;-85
2023/06/04 11:25:34;;;;;;;;;;;;;;;;;;137127;1272;22545;-83
2023/06/04 11:28:36;;;;;;;;;;;;;;;;;;136771;1272;22535;-85
2023/06/04 11:31:38;;;;;;;;;;;;;;;;;;137386;1272;22515;-84
2023/06/04 11:34:40;;;;;;;;;;;;;;;;;;137289;1272;22596;-85
2023/06/04 11:37:41;;;;;;;;;;;;;;;;;;137004;1272;22511;-84
2023/06/04 11:40:44;;;;;;;;;;;;;;;;;;137217;1272;22515;-84
2023/06/04 11:47:01;;;;;;;;;;;;;;;;;;136813;1272;23123;-85
2023/06/04 11:50:02;;;;;;;;;;;;;;;;;;137322;1272;22525;-84
2023/06/04 11:53:04;;;;;;;;;;;;;;;;;;137349;1272;22488;-83
2023/06/04 11:56:05;;;;;;;;;;;;;;;;;;137052;1272;22495;-83
2023/06/04 11:59:06;;;;;;;;;;;;;;;;;;137201;1272;22513;-85
2023/06/04 12:02:08;;;;;;;;;;;;;;;;;;137517;1272;22524;-82
2023/06/04 12:05:09;;;;;;;;;;;;;;;;;;137256;1272;22567;-83
2023/06/04 12:08:10;;;;;;;;;;;;;;;;;;137109;1272;22581;-82
2023/06/04 12:11:12;;;;;;;;;;;;;;;;;;137584;1272;22527;-84
2023/06/04 12:14:13;;;;;;;;;;;;;;;;;;137060;1272;22936;-84
2023/06/04 12:17:14;;;;;;;;;;;;;;;;;;137163;1272;23027;-84
2023/06/04 12:20:15;;;;;;;;;;;;;;;;;;137314;1272;22854;-83
2023/06/04 12:23:16;;;;;;;;;;;;;;;;;;137067;1272;22925;-84
2023/06/04 12:26:17;;;;;;;;;;;;;;;;;;137072;1272;23014;-83
2023/06/04 12:29:19;;;;;;;;;;;;;;;;;;137677;1272;22973;-83
2023/06/04 12:32:20;;;;;;;;;;;;;;;;;;136997;1272;22532;-83
2023/06/04 12:35:22;;;;;;;;;;;;;;;;;;137061;1272;22526;-84
2023/06/04 12:38:23;;;;;;;;;;;;;;;;;;137597;1272;22629;-83
2023/06/04 12:41:25;;;;;;;;;;;;;;;;;;136951;1272;22523;-83
2023/06/04 12:44:26;;;;;;;;;;;;;;;;;;137210;1272;22563;-84
2023/06/04 12:47:27;;;;;;;;;;;;;;;;;;137644;1272;22854;-83
2023/06/04 12:50:28;;;;;;;;;;;;;;;;;;136992;1272;22502;-82
2023/06/04 12:53:30;;;;;;;;;;;;;;;;;;137178;1272;22574;-83
2023/06/04 12:56:31;;;;;;;;;;;;;;;;;;137447;1272;22550;-84
2023/06/04 12:59:32;;;;;;;;;;;;;;;;;;136860;1272;23055;-84
2023/06/04 13:02:34;;;;;;;;;;;;;;;;;;137225;1272;22551;-85
2023/06/04 13:05:35;;;;;;;;;;;;;;;;;;137541;1272;22552;-83
2023/06/04 13:08:36;;;;;;;;;;;;;;;;;;137152;1272;22510;-83
2023/06/04 13:11:37;;;;;;;;;;;;;;;;;;137245;1272;22526;-83
2023/06/04 13:14:39;;;;;;;;;;;;;;;;;;137702;1272;22554;-83
2023/06/04 13:17:40;;;;;;;;;;;;;;;;;;137217;1272;22987;-84
2023/06/04 13:20:41;;;;;;;;;;;;;;;;;;137345;1265;22561;-84
2023/06/04 13:23:42;;;;;;;;;;;;;;;;;;137529;1272;22554;-85
2023/06/04 13:26:43;;;;;;;;;;;;;;;;;;137291;1272;22568;-85
2023/06/04 13:29:45;;;;;;;;;;;;;;;;;;137375;1272;22641;-84
2023/06/04 13:32:46;;;;;;;;;;;;;;;;;;137688;1272;23006;-85
2023/06/04 13:35:47;;;;;;;;;;;;;;;;;;137124;1272;22590;-85
2023/06/04 13:38:48;;;;;;;;;;;;;;;;;;137249;1272;22611;-85
2023/06/04 13:41:49;;;;;;;;;;;;;;;;;;137520;1272;22535;-85
2023/06/04 13:44:51;;;;;;;;;;;;;;;;;;137540;1269;22551;-84
2023/06/04 13:47:52;;;;;;;;;;;;;;;;;;137153;1272;22596;-85
2023/06/04 13:50:53;;;;;;;;;;;;;;;;;;137316;1272;22706;-85
2023/06/04 13:53:54;;;;;;;;;;;;;;;;;;137581;1272;23001;-84
2023/06/04 13:56:55;;;;;;;;;;;;;;;;;;137266;1272;22531;-85
2023/06/04 13:59:57;;;;;;;;;;;;;;;;;;137277;1269;22540;-85
2023/06/04 14:02:59;;;;;;;;;;;;;;;;;;137620;1272;22595;-85
2023/06/04 14:06:00;;;;;;;;;;;;;;;;;;137372;1272;22527;-84
2023/06/04 14:09:02;;;;;;;;;;;;;;;;;;137195;1272;22531;-84
2023/06/04 14:12:03;;;;;;;;;;;;;;;;;;137525;1272;22549;-84
2023/06/04 14:15:04;;;;;;;;;;;;;;;;;;137359;1272;22537;-84
2023/06/04 14:18:05;;;;;;;;;;;;;;;;;;137449;1272;22538;-84
2023/06/04 14:21:06;;;;;;;;;;;;;;;;;;137469;1272;22532;-84
2023/06/04 14:24:08;;;;;;;;;;;;;;;;;;137452;1264;22579;-85
2023/06/04 14:27:09;;;;;;;;;;;;;;;;;;137499;1272;22512;-85
2023/06/04 14:30:13;;;;;;;;;;;;;;;;;;137646;1272;22502;-85
2023/06/04 14:33:17;;;;;;;;;;;;;;;;;;137433;1272;22568;-84
2023/06/04 14:36:18;;;;;;;;;;;;;;;;;;137374;1272;22628;-85
2023/06/04 14:39:19;;;;;;;;;;;;;;;;;;137351;1272;22540;-85
2023/06/04 14:42:22;;;;;;;;;;;;;;;;;;137449;1272;22539;-84
2023/06/04 14:45:23;;;;;;;;;;;;;;;;;;137373;1272;22515;-85
2023/06/04 14:48:24;;;;;;;;;;;;;;;;;;137727;1272;22498;-84
2023/06/04 14:51:26;;;;;;;;;;;;;;;;;;137567;1272;22543;-84
2023/06/04 14:54:27;;;;;;;;;;;;;;;;;;137740;1272;22350;-85
2023/06/04 14:57:28;;;;;;;;;;;;;;;;;;137604;1272;22999;-83
2023/06/04 15:00:29;;;;;;;;;;;;;;;;;;137571;1272;22558;-84
2023/06/04 15:03:31;;;;;;;;;;;;;;;;;;137623;1265;22494;-84
2023/06/04 15:06:32;;;;;;;;;;;;;;;;;;137772;1269;22310;-84
2023/06/04 15:09:33;;;;;;;;;;;;;;;;;;137671;1272;22507;-85
2023/06/04 15:12:36;;;;;;;;;;;;;;;;;;137671;1272;22509;-84
2023/06/04 15:15:37;;;;;;;;;;;;;;;;;;137534;1272;22967;-84
2023/06/04 15:18:38;;;;;;;;;;;;;;;;;;137544;1272;22519;-84
2023/06/04 15:21:39;;;;;;;;;;;;;;;;;;137640;1272;25648;-85
2023/06/04 15:24:40;;;;;;;;;;;;;;;;;;137631;1272;22505;-88
2023/06/04 15:27:41;;;;;;;;;;;;;;;;;;137299;1272;22703;-84
2023/06/04 15:30:45;;;;;;;;;;;;;;;;;;137216;1272;22662;-84
2023/06/04 15:33:46;;;;;;;;;;;;;;;;;;137642;1272;22534;-84
2023/06/04 15:36:48;;;;;;;;;;;;;;;;;;137549;1272;22500;-83
2023/06/04 15:39:49;;;;;;;;;;;;;;;;;;137528;1272;22518;-84
2023/06/04 15:42:50;;;;;;;;;;;;;;;;;;137700;1272;22551;-84
2023/06/04 15:45:51;;;;;;;;;;;;;;;;;;137634;1272;22503;-84
2023/06/04 15:48:52;;;;;;;;;;;;;;;;;;137750;1272;22611;-84
2023/06/04 15:51:53;;;;;;;;;;;;;;;;;;137636;1272;22499;-84
2023/06/04 15:54:54;;;;;;;;;;;;;;;;;;137641;1272;22532;-84
2023/06/04 15:57:56;;;;;;;;;;;;;;;;;;137699;1272;22649;-84
2023/06/04 16:00:59;;;;;;;;;;;;;;;;;;137707;1272;22552;-84
2023/06/04 16:04:01;;;;;;;;;;;;;;;;;;137625;1272;22606;-84
2023/06/04 16:07:02;;;;;;;;;;;;;;;;;;137657;1272;22979;-83
2023/06/04 16:10:03;;;;;;;;;;;;;;;;;;137686;1265;22519;-83
2023/06/04 16:13:04;;;;;;;;;;;;;;;;;;137609;1272;22627;-84
2023/06/04 16:16:05;;;;;;;;;;;;;;;;;;137652;1272;23067;-82
2023/06/04 16:19:07;;;;;;;;;;;;;;;;;;137684;1272;22516;-84
2023/06/04 16:22:08;;;;;;;;;;;;;;;;;;137584;1272;22999;-84
2023/06/04 16:25:10;;;;;;;;;;;;;;;;;;137304;1272;22946;-84
2023/06/04 16:28:11;;;;;;;;;;;;;;;;;;137666;1272;22852;-84
2023/06/04 16:31:12;;;;;;;;;;;;;;;;;;137603;1272;22511;-84
2023/06/04 16:34:21;;;;;;;;;;;;;;;;;;137582;1272;22550;-85
2023/06/04 16:37:23;;;;;;;;;;;;;;;;;;137502;1272;22987;-84
2023/06/04 16:40:30;;;;;;;;;;;;;;;;;;137578;1272;22588;-84
2023/06/04 16:43:40;;;;;;;;;;;;;;;;;;137676;1272;22559;-84
2023/06/04 16:46:49;;;;;;;;;;;;;;;;;;137601;1269;22535;-84
2023/06/04 16:49:58;;;;;;;;;;;;;;;;;;137758;1272;22740;-85
2023/06/04 16:52:59;;;;;;;;;;;;;;;;;;137634;1272;22555;-83
2023/06/04 16:56:00;;;;;;;;;;;;;;;;;;137733;1272;22496;-84
2023/06/04 16:59:01;;;;;;;;;;;;;;;;;;137595;1272;22563;-84
2023/06/04 17:02:03;;;;;;;;;;;;;;;;;;137569;1272;22510;-85
2023/06/04 17:05:04;;;;;;;;;;;;;;;;;;137686;1272;22503;-84
2023/06/04 17:08:05;;;;;;;;;;;;;;;;;;137713;1272;22712;-84
2023/06/04 17:11:06;;;;;;;;;;;;;;;;;;137774;1272;22485;-84
2023/06/04 17:14:08;;;;;;;;;;;;;;;;;;137664;1272;22512;-84
2023/06/04 17:17:09;;;;;;;;;;;;;;;;;;137765;1268;22866;-83
2023/06/04 17:20:11;;;;;;;;;;;;;;;;;;137599;1268;22545;-84
2023/06/04 17:23:12;;;;;;;;;;;;;;;;;;137594;1272;22542;-84
2023/06/04 17:26:13;;;;;;;;;;;;;;;;;;137755;1272;22916;-84
2023/06/04 17:29:15;;;;;;;;;;;;;;;;;;137599;1272;22514;-84
2023/06/04 17:32:16;;;;;;;;;;;;;;;;;;137697;1272;22558;-83
2023/06/04 17:35:17;;;;;;;;;;;;;;;;;;137740;1272;22523;-84
2023/06/04 17:38:18;;;;;;;;;;;;;;;;;;137703;1272;22915;-84
2023/06/04 17:41:19;;;;;;;;;;;;;;;;;;137608;1272;22547;-84
2023/06/04 17:44:20;;;;;;;;;;;;;;;;;;137691;1272;22546;-84
2023/06/04 17:47:21;;;;;;;;;;;;;;;;;;137759;1272;22495;-84
2023/06/04 17:50:22;;;;;;;;;;;;;;;;;;137586;1272;22484;-83
2023/06/04 17:53:23;;;;;;;;;;;;;;;;;;137632;1272;22579;-84
2023/06/04 17:56:25;;;;;;;;;;;;;;;;;;137679;1269;22541;-84
2023/06/04 17:59:26;;;;;;;;;;;;;;;;;;137778;1265;22516;-84
2023/06/04 18:02:27;;;;;;;;;;;;;;;;;;137699;1272;22503;-84
2023/06/04 18:05:28;;;;;;;;;;;;;;;;;;137698;1272;22618;-84
2023/06/04 18:08:30;;;;;;;;;;;;;;;;;;137736;1272;22575;-84
2023/06/04 18:11:31;;;;;;;;;;;;;;;;;;137462;1272;22559;-83
2023/06/04 18:14:32;;;;;;;;;;;;;;;;;;137706;1272;22984;-80
2023/06/04 18:17:34;;;;;;;;;;;;;;;;;;137739;1272;22519;-80
2023/06/04 18:20:35;;;;;;;;;;;;;;;;;;137628;1272;22517;-81
2023/06/04 18:23:36;;;;;;;;;;;;;;;;;;137670;1272;22483;-81
2023/06/04 18:26:37;;;;;;;;;;;;;;;;;;137723;1272;22582;-80
2023/06/04 18:29:38;;;;;;;;;;;;;;;;;;137678;1272;22543;-79
2023/06/04 18:32:39;;;;;;;;;;;;;;;;;;137712;1272;22968;-80
2023/06/04 18:35:40;;;;;;;;;;;;;;;;;;137756;1272;22510;-80
2023/06/04 18:38:42;;;;;;;;;;;;;;;;;;137769;1262;22542;-80
2023/06/04 18:41:43;;;;;;;;;;;;;;;;;;137821;1259;22305;-81
2023/06/04 18:44:44;;;;;;;;;;;;;;;;;;137740;1272;22552;-82
2023/06/04 18:47:45;;;;;;;;;;;;;;;;;;137746;1272;22477;-81
2023/06/04 18:50:46;;;;;;;;;;;;;;;;;;137642;1265;176738;-80
2023/06/04 18:53:47;;;;;;;;;;;;;;;;;;137708;1272;22508;-80
2023/06/04 18:56:48;;;;;;;;;;;;;;;;;;137774;1272;22331;-81
2023/06/04 18:59:50;;;;;;;;;;;;;;;;;;137663;1272;22533;-81
2023/06/04 19:02:51;;;;;;;;;;;;;;;;;;137777;1272;22282;-81
2023/06/04 19:05:52;;;;;;;;;;;;;;;;;;137721;1272;22509;-82
2023/06/04 19:08:53;;;;;;;;;;;;;;;;;;137704;1272;22902;-81
2023/06/04 19:11:54;;;;;;;;;;;;;;;;;;137753;1272;22941;-81
2023/06/04 19:14:55;;;;;;;;;;;;;;;;;;137751;1272;22308;-80
2023/06/04 19:17:57;;;;;;;;;;;;;;;;;;137764;1272;22361;-80
2023/06/04 19:20:58;;;;;;;;;;;;;;;;;;137769;1272;22319;-81
2023/06/04 19:23:59;;;;;;;;;;;;;;;;;;137756;1272;22325;-81
2023/06/04 19:27:00;;;;;;;;;;;;;;;;;;137726;1272;22550;-81
2023/06/04 19:30:02;;;;;;;;;;;;;;;;;;137662;1272;22605;-81
2023/06/04 19:33:03;;;;;;;;;;;;;;;;;;137782;1272;22290;-80
2023/06/04 19:36:04;;;;;;;;;;;;;;;;;;137697;1272;22507;-80
2023/06/04 19:39:05;;;;;;;;;;;;;;;;;;137760;1272;22408;-80
2023/06/04 19:42:06;;;;;;;;;;;;;;;;;;137658;1272;22474;-80
2023/06/04 19:45:07;;;;;;;;;;;;;;;;;;137675;1272;22497;-80
2023/06/04 19:48:08;;;;;;;;;;;;;;;;;;137743;1272;22707;-81
2023/06/04 19:51:09;;;;;;;;;;;;;;;;;;137560;1268;22517;-81
2023/06/04 19:54:10;;;;;;;;;;;;;;;;;;137632;1272;22544;-80
2023/06/04 19:57:12;;;;;;;;;;;;;;;;;;137670;1272;22539;-80
2023/06/04 20:00:13;;;;;;;;;;;;;;;;;;137560;1272;22585;-80
2023/06/04 20:03:14;;;;;;;;;;;;;;;;;;137667;1272;22481;-80
2023/06/04 20:06:15;;;;;;;;;;;;;;;;;;137657;1272;22550;-81
2023/06/04 20:09:16;;;;;;;;;;;;;;;;;;137706;1272;22548;-80
2023/06/04 20:12:19;;;;;;;;;;;;;;;;;;137649;1272;22530;-81
2023/06/04 20:15:21;;;;;;;;;;;;;;;;;;137368;1272;22510;-80
2023/06/04 20:18:22;;;;;;;;;;;;;;;;;;137384;1272;22550;-80
2023/06/04 20:21:23;;;;;;;;;;;;;;;;;;137613;1272;22504;-79
2023/06/04 20:24:24;;;;;;;;;;;;;;;;;;137628;1272;22514;-79
2023/06/04 20:27:25;;;;;;;;;;;;;;;;;;137582;1272;22525;-80
2023/06/04 20:30:26;;;;;;;;;;;;;;;;;;137718;1272;23056;-80
2023/06/04 20:33:27;;;;;;;;;;;;;;;;;;137567;1272;22978;-80
2023/06/04 20:36:28;;;;;;;;;;;;;;;;;;137723;1272;22529;-80
2023/06/04 20:39:30;;;;;;;;;;;;;;;;;;137691;1272;22509;-80
2023/06/04 20:42:31;;;;;;;;;;;;;;;;;;137656;1272;22489;-79
2023/06/04 20:45:35;;;;;;;;;;;;;;;;;;137798;1272;22518;-82
2023/06/04 20:48:36;;;;;;;;;;;;;;;;;;137479;1272;22617;-82
2023/06/04 20:51:37;;;;;;;;;;;;;;;;;;137571;1272;22540;-79
2023/06/04 20:54:38;;;;;;;;;;;;;;;;;;137778;1272;22561;-80
2023/06/04 20:57:39;;;;;;;;;;;;;;;;;;137786;1272;22812;-80